sensor_id;sensor_type;location;lat;lon;timestamp;pressure;altitude;pressure_sealevel;temperature;humidity
23176;BME280;19910;42.652;23.332;2023-06-04T00:02:21;94750.59;;;16.25;98.63
23176;BME280;19910;42.652;23.332;2023-06-04T00:04:47;94751.06;;;16.31;98.15
23176;BME280;19910;42.652;23.332;2023-06-04T00:07:14;94748.84;;;16.37;98.42
23176;BME280;19910;42.652;23.332;2023-06-04T00:09:41;94746.81;;;16.14;98.73
23176;BME280;19910;42.652;23.332;2023-06-04T00:12:08;94746.41;;;16.12;99.50
23176;BME280;19910;42.652;23.332;2023-06-04T00:14:36;94741.94;;;16.23;98.54
23176;BME280;19910;42.652;23.332;2023-06-04T00:17:03;94743.50;;;16.44;97.87
23176;BME280;19910;42.652;23.332;2023-06-04T00:19:30;94743.75;;;16.35;97.59
23176;BME280;19910;42.652;23.332;2023-06-04T00:21:56;94737.75;;;16.29;97.89
23176;BME280;19910;42.652;23.332;2023-06-04T00:24:23;94744.97;;;16.38;97.21
23176;BME280;19910;42.652;23.332;2023-06-04T00:26:50;94740.28;;;16.38;97.36
23176;BME280;19910;42.652;23.332;2023-06-04T00:29:17;94739.94;;;16.40;96.53
23176;BME280;19910;42.652;23.332;2023-06-04T00:31:45;94738.91;;;16.28;96.18
23176;BME280;19910;42.652;23.332;2023-06-04T00:34:12;94731.03;;;16.23;96.22
23176;BME280;19910;42.652;23.332;2023-06-04T00:36:39;94730.88;;;16.16;96.42
23176;BME280;19910;42.652;23.332;2023-06-04T00:39:06;94731.28;;;16.18;96.02
23176;BME280;19910;42.652;23.332;2023-06-04T00:41:33;94735.06;;;16.10;95.63
23176;BME280;19910;42.652;23.332;2023-06-04T00:44:00;94732.75;;;16.12;95.44
23176;BME280;19910;42.652;23.332;2023-06-04T00:46:32;94734.97;;;16.07;95.68
23176;BME280;19910;42.652;23.332;2023-06-04T00:49:00;94730.53;;;15.98;96.94
23176;BME280;19910;42.652;23.332;2023-06-04T00:51:29;94729.44;;;16.03;96.64
23176;BME280;19910;42.652;23.332;2023-06-04T00:53:58;94731.88;;;16.08;96.15
23176;BME280;19910;42.652;23.332;2023-06-04T00:56:27;94725.63;;;16.08;96.11
23176;BME280;19910;42.652;23.332;2023-06-04T00:58:53;94725.09;;;16.02;96.18
23176;BME280;19910;42.652;23.332;2023-06-04T01:01:27;94732.16;;;16.03;96.75
23176;BME280;19910;42.652;23.332;2023-06-04T01:04:01;94727.00;;;15.98;96.54
23176;BME280;19910;42.652;23.332;2023-06-04T01:06:31;94724.38;;;15.86;96.56
23176;BME280;19910;42.652;23.332;2023-06-04T01:09:02;94737.13;;;15.97;96.02
23176;BME280;19910;42.652;23.332;2023-06-04T01:11:31;94739.28;;;16.08;95.72
23176;BME280;19910;42.652;23.332;2023-06-04T01:13:58;94729.13;;;15.89;96.51
23176;BME280;19910;42.652;23.332;2023-06-04T01:16:26;94739.03;;;15.78;97.77
23176;BME280;19910;42.652;23.332;2023-06-04T01:18:57;94733.66;;;15.81;98.10
23176;BME280;19910;42.652;23.332;2023-06-04T01:21:29;94732.69;;;15.74;99.25
23176;BME280;19910;42.652;23.332;2023-06-04T01:24:00;94732.56;;;15.67;100.00
23176;BME280;19910;42.652;23.332;2023-06-04T01:26:30;94728.69;;;15.52;100.00
23176;BME280;19910;42.652;23.332;2023-06-04T01:28:58;94732.84;;;15.46;100.00
23176;BME280;19910;42.652;23.332;2023-06-04T01:31:26;94719.38;;;15.37;100.00
23176;BME280;19910;42.652;23.332;2023-06-04T01:33:58;94750.88;;;15.50;100.00
23176;BME280;19910;42.652;23.332;2023-06-04T01:36:26;94745.78;;;15.49;100.00
23176;BME280;19910;42.652;23.332;2023-06-04T01:38:53;94743.84;;;15.49;100.00
23176;BME280;19910;42.652;23.332;2023-06-04T01:41:20;94750.81;;;15.47;100.00
23176;BME280;19910;42.652;23.332;2023-06-04T01:43:46;94752.03;;;15.49;100.00
23176;BME280;19910;42.652;23.332;2023-06-04T01:46:13;94760.78;;;15.39;100.00
23176;BME280;19910;42.652;23.332;2023-06-04T01:48:40;94752.94;;;15.38;100.00
23176;BME280;19910;42.652;23.332;2023-06-04T01:51:07;94757.88;;;15.32;100.00
23176;BME280;19910;42.652;23.332;2023-06-04T01:53:35;94759.81;;;15.32;100.00
23176;BME280;19910;42.652;23.332;2023-06-04T01:56:01;94760.59;;;15.32;100.00
23176;BME280;19910;42.652;23.332;2023-06-04T01:58:28;94759.91;;;15.35;100.00
23176;BME280;19910;42.652;23.332;2023-06-04T02:00:57;94749.44;;;15.21;100.00
23176;BME280;19910;42.652;23.332;2023-06-04T02:03:25;94767.38;;;15.38;100.00
23176;BME280;19910;42.652;23.332;2023-06-04T02:05:52;94764.47;;;15.31;100.00
23176;BME280;19910;42.652;23.332;2023-06-04T02:08:19;94762.19;;;15.33;100.00
23176;BME280;19910;42.652;23.332;2023-06-04T02:10:48;94767.59;;;15.29;100.00
23176;BME280;19910;42.652;23.332;2023-06-04T02:13:15;94766.34;;;15.27;100.00
23176;BME280;19910;42.652;23.332;2023-06-04T02:15:42;94766.84;;;15.33;100.00
23176;BME280;19910;42.652;23.332;2023-06-04T02:18:14;94771.44;;;15.28;100.00
23176;BME280;19910;42.652;23.332;2023-06-04T02:20:42;94772.31;;;15.33;100.00
23176;BME280;19910;42.652;23.332;2023-06-04T02:23:09;94771.34;;;15.25;100.00
23176;BME280;19910;42.652;23.332;2023-06-04T02:25:36;94778.56;;;15.33;100.00
23176;BME280;19910;42.652;23.332;2023-06-04T02:28:04;94784.03;;;15.33;100.00
23176;BME280;19910;42.652;23.332;2023-06-04T02:30:30;94783.31;;;15.36;100.00
23176;BME280;19910;42.652;23.332;2023-06-04T02:32:57;94791.84;;;15.35;100.00
23176;BME280;19910;42.652;23.332;2023-06-04T02:35:26;94790.22;;;15.30;100.00
23176;BME280;19910;42.652;23.332;2023-06-04T02:37:53;94801.72;;;15.39;100.00
23176;BME280;19910;42.652;23.332;2023-06-04T02:40:22;94792.41;;;15.40;100.00
23176;BME280;19910;42.652;23.332;2023-06-04T02:42:48;94790.13;;;15.26;100.00
23176;BME280;19910;42.652;23.332;2023-06-04T02:45:16;94797.59;;;15.29;100.00
23176;BME280;19910;42.652;23.332;2023-06-04T02:47:43;94799.69;;;15.20;100.00
23176;BME280;19910;42.652;23.332;2023-06-04T02:50:11;94798.66;;;15.25;100.00
23176;BME280;19910;42.652;23.332;2023-06-04T02:52:38;94802.97;;;15.26;100.00
23176;BME280;19910;42.652;23.332;2023-06-04T02:55:06;94798.91;;;15.20;100.00
23176;BME280;19910;42.652;23.332;2023-06-04T02:57:34;94805.69;;;15.26;100.00
23176;BME280;19910;42.652;23.332;2023-06-04T03:00:01;94805.16;;;15.36;100.00
23176;BME280;19910;42.652;23.332;2023-06-04T03:02:38;94807.44;;;15.34;100.00
23176;BME280;19910;42.652;23.332;2023-06-04T03:05:05;94813.59;;;15.31;100.00
23176;BME280;19910;42.652;23.332;2023-06-04T03:07:32;94817.22;;;15.35;100.00
23176;BME280;19910;42.652;23.332;2023-06-04T03:09:58;94807.44;;;15.34;100.00
23176;BME280;19910;42.652;23.332;2023-06-04T03:12:25;94813.69;;;15.35;100.00
23176;BME280;19910;42.652;23.332;2023-06-04T03:14:52;94814.41;;;15.32;100.00
23176;BME280;19910;42.652;23.332;2023-06-04T03:17:19;94809.31;;;15.30;100.00
23176;BME280;19910;42.652;23.332;2023-06-04T03:19:47;94819.06;;;15.31;100.00
23176;BME280;19910;42.652;23.332;2023-06-04T03:22:14;94812.03;;;15.30;100.00
23176;BME280;19910;42.652;23.332;2023-06-04T03:24:41;94806.41;;;15.23;100.00
23176;BME280;19910;42.652;23.332;2023-06-04T03:27:09;94815.19;;;15.32;100.00
23176;BME280;19910;42.652;23.332;2023-06-04T03:29:36;94817.31;;;15.39;100.00
23176;BME280;19910;42.652;23.332;2023-06-04T03:32:04;94816.97;;;15.24;100.00
23176;BME280;19910;42.652;23.332;2023-06-04T03:34:31;94825.06;;;15.21;100.00
23176;BME280;19910;42.652;23.332;2023-06-04T03:36:59;94828.94;;;15.20;100.00
23176;BME280;19910;42.652;23.332;2023-06-04T03:39:26;94831.59;;;15.16;100.00
23176;BME280;19910;42.652;23.332;2023-06-04T03:41:53;94841.16;;;15.10;100.00
23176;BME280;19910;42.652;23.332;2023-06-04T03:44:21;94833.06;;;15.14;100.00
23176;BME280;19910;42.652;23.332;2023-06-04T03:46:48;94832.53;;;15.24;100.00
23176;BME280;19910;42.652;23.332;2023-06-04T03:49:15;94824.34;;;15.24;100.00
23176;BME280;19910;42.652;23.332;2023-06-04T03:51:42;94840.72;;;15.24;100.00
23176;BME280;19910;42.652;23.332;2023-06-04T03:54:10;94830.50;;;15.21;100.00
23176;BME280;19910;42.652;23.332;2023-06-04T03:56:42;94838.63;;;15.33;100.00
23176;BME280;19910;42.652;23.332;2023-06-04T03:59:09;94833.88;;;15.30;100.00
23176;BME280;19910;42.652;23.332;2023-06-04T04:01:36;94841.28;;;15.29;100.00
23176;BME280;19910;42.652;23.332;2023-06-04T04:04:04;94838.53;;;15.29;100.00
23176;BME280;19910;42.652;23.332;2023-06-04T04:06:30;94841.53;;;15.24;100.00
23176;BME280;19910;42.652;23.332;2023-06-04T04:08:57;94848.66;;;15.29;100.00
23176;BME280;19910;42.652;23.332;2023-06-04T04:11:26;94843.38;;;15.36;100.00
23176;BME280;19910;42.652;23.332;2023-06-04T04:13:52;94854.66;;;15.50;100.00
23176;BME280;19910;42.652;23.332;2023-06-04T04:16:19;94850.78;;;15.51;100.00
23176;BME280;19910;42.652;23.332;2023-06-04T04:18:46;94847.81;;;15.56;100.00
23176;BME280;19910;42.652;23.332;2023-06-04T04:21:13;94854.75;;;15.54;100.00
23176;BME280;19910;42.652;23.332;2023-06-04T04:23:39;94849.41;;;15.57;100.00
23176;BME280;19910;42.652;23.332;2023-06-04T04:26:07;94851.94;;;15.66;100.00
23176;BME280;19910;42.652;23.332;2023-06-04T04:28:36;94848.22;;;15.74;100.00
23176;BME280;19910;42.652;23.332;2023-06-04T04:31:03;94849.81;;;15.75;100.00
23176;BME280;19910;42.652;23.332;2023-06-04T04:33:31;94849.72;;;15.72;100.00
23176;BME280;19910;42.652;23.332;2023-06-04T04:36:02;94857.06;;;15.68;100.00
23176;BME280;19910;42.652;23.332;2023-06-04T04:38:29;94853.63;;;15.71;100.00
23176;BME280;19910;42.652;23.332;2023-06-04T04:40:59;94853.78;;;15.78;100.00
23176;BME280;19910;42.652;23.332;2023-06-04T04:43:30;94845.31;;;15.83;100.00
23176;BME280;19910;42.652;23.332;2023-06-04T04:45:58;94841.16;;;15.89;100.00
23176;BME280;19910;42.652;23.332;2023-06-04T04:48:25;94846.50;;;16.01;100.00
23176;BME280;19910;42.652;23.332;2023-06-04T04:50:52;94850.81;;;16.02;100.00
23176;BME280;19910;42.652;23.332;2023-06-04T04:53:19;94847.25;;;16.17;100.00
23176;BME280;19910;42.652;23.332;2023-06-04T04:55:46;94853.59;;;16.41;99.56
23176;BME280;19910;42.652;23.332;2023-06-04T04:58:12;94856.06;;;16.46;98.75
23176;BME280;19910;42.652;23.332;2023-06-04T05:00:39;94844.84;;;16.70;97.49
23176;BME280;19910;42.652;23.332;2023-06-04T05:03:07;94854.63;;;16.52;97.48
23176;BME280;19910;42.652;23.332;2023-06-04T05:05:34;94847.59;;;16.70;96.64
23176;BME280;19910;42.652;23.332;2023-06-04T05:08:01;94848.72;;;16.88;94.67
23176;BME280;19910;42.652;23.332;2023-06-04T05:10:28;94846.97;;;16.99;93.33
23176;BME280;19910;42.652;23.332;2023-06-04T05:12:56;94842.22;;;16.96;93.33
23176;BME280;19910;42.652;23.332;2023-06-04T05:15:23;94852.78;;;17.17;92.37
23176;BME280;19910;42.652;23.332;2023-06-04T05:17:51;94852.13;;;17.24;91.90
23176;BME280;19910;42.652;23.332;2023-06-04T05:20:20;94863.66;;;17.14;90.89
23176;BME280;19910;42.652;23.332;2023-06-04T05:22:48;94858.16;;;16.91;91.47
23176;BME280;19910;42.652;23.332;2023-06-04T05:25:16;94861.69;;;16.91;91.42
23176;BME280;19910;42.652;23.332;2023-06-04T05:27:43;94856.50;;;16.86;90.63
23176;BME280;19910;42.652;23.332;2023-06-04T05:30:11;94860.59;;;16.96;90.79
23176;BME280;19910;42.652;23.332;2023-06-04T05:32:38;94861.97;;;17.05;90.69
23176;BME280;19910;42.652;23.332;2023-06-04T05:35:07;94860.75;;;17.26;90.20
23176;BME280;19910;42.652;23.332;2023-06-04T05:37:36;94864.91;;;17.39;89.56
23176;BME280;19910;42.652;23.332;2023-06-04T05:40:06;94860.50;;;17.12;89.78
23176;BME280;19910;42.652;23.332;2023-06-04T05:42:34;94864.53;;;17.18;90.48
23176;BME280;19910;42.652;23.332;2023-06-04T05:45:01;94868.44;;;17.17;90.34
23176;BME280;19910;42.652;23.332;2023-06-04T05:47:28;94858.91;;;17.11;90.53
23176;BME280;19910;42.652;23.332;2023-06-04T05:49:56;94881.50;;;17.27;90.08
23176;BME280;19910;42.652;23.332;2023-06-04T05:52:23;94875.59;;;17.25;90.13
23176;BME280;19910;42.652;23.332;2023-06-04T05:54:51;94879.66;;;17.12;90.17
23176;BME280;19910;42.652;23.332;2023-06-04T05:57:19;94882.28;;;17.04;90.81
23176;BME280;19910;42.652;23.332;2023-06-04T05:59:46;94874.25;;;17.15;89.26
23176;BME280;19910;42.652;23.332;2023-06-04T06:02:13;94886.88;;;17.20;88.67
23176;BME280;19910;42.652;23.332;2023-06-04T06:04:40;94891.38;;;17.31;88.85
23176;BME280;19910;42.652;23.332;2023-06-04T06:07:07;94895.75;;;17.36;88.06
23176;BME280;19910;42.652;23.332;2023-06-04T06:09:33;94896.13;;;17.34;88.12
23176;BME280;19910;42.652;23.332;2023-06-04T06:12:02;94896.50;;;17.33;88.29
23176;BME280;19910;42.652;23.332;2023-06-04T06:14:30;94891.56;;;17.42;87.93
23176;BME280;19910;42.652;23.332;2023-06-04T06:16:57;94893.59;;;17.45;87.45
23176;BME280;19910;42.652;23.332;2023-06-04T06:19:24;94905.81;;;17.51;87.02
23176;BME280;19910;42.652;23.332;2023-06-04T06:21:51;94895.84;;;17.62;85.93
23176;BME280;19910;42.652;23.332;2023-06-04T06:24:18;94897.44;;;17.63;85.94
23176;BME280;19910;42.652;23.332;2023-06-04T06:26:45;94893.78;;;17.79;85.65
23176;BME280;19910;42.652;23.332;2023-06-04T06:29:13;94889.94;;;17.83;84.04
23176;BME280;19910;42.652;23.332;2023-06-04T06:31:40;94899.94;;;17.72;84.40
23176;BME280;19910;42.652;23.332;2023-06-04T06:34:07;94904.44;;;17.84;84.64
23176;BME280;19910;42.652;23.332;2023-06-04T06:36:33;94897.59;;;18.23;83.22
23176;BME280;19910;42.652;23.332;2023-06-04T06:39:00;94890.66;;;18.29;82.24
23176;BME280;19910;42.652;23.332;2023-06-04T06:41:27;94896.59;;;18.35;81.24
23176;BME280;19910;42.652;23.332;2023-06-04T06:43:56;94896.19;;;18.33;81.33
23176;BME280;19910;42.652;23.332;2023-06-04T06:46:24;94893.81;;;18.58;80.67
23176;BME280;19910;42.652;23.332;2023-06-04T06:48:51;94896.16;;;18.89;79.78
23176;BME280;19910;42.652;23.332;2023-06-04T06:51:17;94897.06;;;18.67;79.33
23176;BME280;19910;42.652;23.332;2023-06-04T06:53:44;94896.53;;;18.58;80.36
23176;BME280;19910;42.652;23.332;2023-06-04T06:56:11;94908.56;;;18.76;79.83
23176;BME280;19910;42.652;23.332;2023-06-04T06:58:37;94909.22;;;18.66;79.00
23176;BME280;19910;42.652;23.332;2023-06-04T07:01:04;94910.06;;;18.70;78.81
23176;BME280;19910;42.652;23.332;2023-06-04T07:03:32;94905.19;;;18.60;79.68
23176;BME280;19910;42.652;23.332;2023-06-04T07:05:59;94902.25;;;18.72;79.16
23176;BME280;19910;42.652;23.332;2023-06-04T07:08:26;94905.81;;;18.50;78.64
23176;BME280;19910;42.652;23.332;2023-06-04T07:10:53;94917.66;;;18.54;78.71
23176;BME280;19910;42.652;23.332;2023-06-04T07:13:20;94912.91;;;18.51;78.75
23176;BME280;19910;42.652;23.332;2023-06-04T07:15:47;94922.88;;;18.36;79.33
23176;BME280;19910;42.652;23.332;2023-06-04T07:18:14;94930.09;;;18.47;79.94
23176;BME280;19910;42.652;23.332;2023-06-04T07:20:42;94920.69;;;18.48;79.38
23176;BME280;19910;42.652;23.332;2023-06-04T07:23:08;94918.50;;;18.58;79.71
23176;BME280;19910;42.652;23.332;2023-06-04T07:25:35;94929.28;;;18.70;79.65
23176;BME280;19910;42.652;23.332;2023-06-04T07:28:02;94921.13;;;18.77;79.28
23176;BME280;19910;42.652;23.332;2023-06-04T07:30:30;94946.47;;;18.67;79.65
23176;BME280;19910;42.652;23.332;2023-06-04T07:32:57;94925.56;;;18.59;80.59
23176;BME280;19910;42.652;23.332;2023-06-04T07:35:24;94924.53;;;19.00;79.42
23176;BME280;19910;42.652;23.332;2023-06-04T07:37:52;94928.47;;;18.99;79.59
23176;BME280;19910;42.652;23.332;2023-06-04T07:40:19;94927.84;;;19.13;79.24
23176;BME280;19910;42.652;23.332;2023-06-04T07:42:46;94934.69;;;19.30;78.26
23176;BME280;19910;42.652;23.332;2023-06-04T07:45:13;94930.34;;;19.25;78.77
23176;BME280;19910;42.652;23.332;2023-06-04T07:47:40;94933.44;;;19.57;78.15
23176;BME280;19910;42.652;23.332;2023-06-04T07:50:08;94939.06;;;20.12;76.55
23176;BME280;19910;42.652;23.332;2023-06-04T07:52:35;94935.94;;;20.13;75.12
23176;BME280;19910;42.652;23.332;2023-06-04T07:55:03;94944.44;;;19.94;76.01
23176;BME280;19910;42.652;23.332;2023-06-04T07:57:31;94950.03;;;20.05;75.65
23176;BME280;19910;42.652;23.332;2023-06-04T07:59:58;94949.34;;;20.18;74.96
23176;BME280;19910;42.652;23.332;2023-06-04T08:02:25;94947.22;;;20.45;75.06
23176;BME280;19910;42.652;23.332;2023-06-04T08:04:52;94948.16;;;20.71;73.91
23176;BME280;19910;42.652;23.332;2023-06-04T08:07:19;94948.25;;;20.30;74.24
23176;BME280;19910;42.652;23.332;2023-06-04T08:09:45;94953.16;;;20.03;75.18
23176;BME280;19910;42.652;23.332;2023-06-04T08:12:13;94957.22;;;20.20;75.39
23176;BME280;19910;42.652;23.332;2023-06-04T08:14:41;94944.00;;;20.98;73.79
23176;BME280;19910;42.652;23.332;2023-06-04T08:17:08;94946.75;;;20.98;71.39
23176;BME280;19910;42.652;23.332;2023-06-04T08:19:35;94939.00;;;21.21;70.55
23176;BME280;19910;42.652;23.332;2023-06-04T08:22:02;94943.81;;;21.42;70.19
23176;BME280;19910;42.652;23.332;2023-06-04T08:24:29;94939.88;;;21.47;70.31
23176;BME280;19910;42.652;23.332;2023-06-04T08:26:56;94949.25;;;21.24;70.17
23176;BME280;19910;42.652;23.332;2023-06-04T08:29:24;94943.84;;;21.53;71.05
23176;BME280;19910;42.652;23.332;2023-06-04T08:31:51;94943.91;;;21.92;68.63
23176;BME280;19910;42.652;23.332;2023-06-04T08:34:18;94944.72;;;22.42;67.17
23176;BME280;19910;42.652;23.332;2023-06-04T08:36:45;94947.84;;;21.84;67.54
23176;BME280;19910;42.652;23.332;2023-06-04T08:39:12;94947.88;;;22.05;66.66
23176;BME280;19910;42.652;23.332;2023-06-04T08:41:43;94965.06;;;21.49;67.92
23176;BME280;19910;42.652;23.332;2023-06-04T08:44:10;94973.69;;;21.30;68.69
23176;BME280;19910;42.652;23.332;2023-06-04T08:46:39;94965.41;;;21.33;70.49
23176;BME280;19910;42.652;23.332;2023-06-04T08:49:07;94968.09;;;21.15;69.28
23176;BME280;19910;42.652;23.332;2023-06-04T08:51:36;94966.69;;;21.57;69.02
23176;BME280;19910;42.652;23.332;2023-06-04T08:54:04;94972.28;;;21.92;68.24
23176;BME280;19910;42.652;23.332;2023-06-04T08:56:33;94976.66;;;22.01;64.81
23176;BME280;19910;42.652;23.332;2023-06-04T08:59:01;94977.22;;;21.26;66.87
23176;BME280;19910;42.652;23.332;2023-06-04T09:01:29;94984.72;;;21.37;66.38
23176;BME280;19910;42.652;23.332;2023-06-04T09:04:00;94972.09;;;21.25;66.61
23176;BME280;19910;42.652;23.332;2023-06-04T09:06:28;94981.56;;;21.31;66.18
23176;BME280;19910;42.652;23.332;2023-06-04T09:08:56;94984.31;;;21.35;65.61
23176;BME280;19910;42.652;23.332;2023-06-04T09:11:26;94987.47;;;21.30;66.32
23176;BME280;19910;42.652;23.332;2023-06-04T09:13:58;94980.63;;;21.02;65.85
23176;BME280;19910;42.652;23.332;2023-06-04T09:16:26;94990.13;;;21.15;65.54
23176;BME280;19910;42.652;23.332;2023-06-04T09:18:54;94985.56;;;21.48;64.98
23176;BME280;19910;42.652;23.332;2023-06-04T09:21:22;94984.06;;;21.75;64.34
23176;BME280;19910;42.652;23.332;2023-06-04T09:23:50;94984.97;;;22.11;63.38
23176;BME280;19910;42.652;23.332;2023-06-04T09:26:16;94979.03;;;22.06;63.98
23176;BME280;19910;42.652;23.332;2023-06-04T09:28:45;94987.66;;;21.86;64.23
23176;BME280;19910;42.652;23.332;2023-06-04T09:31:14;94980.13;;;21.69;64.76
23176;BME280;19910;42.652;23.332;2023-06-04T09:33:45;94984.88;;;21.72;64.48
23176;BME280;19910;42.652;23.332;2023-06-04T09:36:12;94982.19;;;22.04;63.18
23176;BME280;19910;42.652;23.332;2023-06-04T09:38:40;94982.44;;;21.60;64.26
23176;BME280;19910;42.652;23.332;2023-06-04T09:41:11;94987.22;;;21.70;63.94
23176;BME280;19910;42.652;23.332;2023-06-04T09:43:38;94997.69;;;21.25;64.85
23176;BME280;19910;42.652;23.332;2023-06-04T09:46:12;94994.63;;;21.52;65.13
23176;BME280;19910;42.652;23.332;2023-06-04T09:48:39;94984.81;;;21.65;64.99
23176;BME280;19910;42.652;23.332;2023-06-04T09:51:07;94977.47;;;22.12;64.43
23176;BME280;19910;42.652;23.332;2023-06-04T09:53:34;94985.78;;;22.40;62.45
23176;BME280;19910;42.652;23.332;2023-06-04T09:56:04;94969.19;;;22.68;63.07
23176;BME280;19910;42.652;23.332;2023-06-04T09:58:32;94975.47;;;22.73;60.84
23176;BME280;19910;42.652;23.332;2023-06-04T10:01:00;94974.72;;;22.51;62.09
23176;BME280;19910;42.652;23.332;2023-06-04T10:03:31;94981.00;;;22.02;63.47
23176;BME280;19910;42.652;23.332;2023-06-04T10:05:58;94977.09;;;22.77;62.94
23176;BME280;19910;42.652;23.332;2023-06-04T10:08:27;94975.41;;;23.12;60.70
23176;BME280;19910;42.652;23.332;2023-06-04T10:10:56;94964.06;;;22.49;62.10
23176;BME280;19910;42.652;23.332;2023-06-04T10:13:26;94954.94;;;22.98;60.60
23176;BME280;19910;42.652;23.332;2023-06-04T10:15:54;94956.94;;;22.84;61.74
23176;BME280;19910;42.652;23.332;2023-06-04T10:18:23;94967.59;;;22.60;61.05
23176;BME280;19910;42.652;23.332;2023-06-04T10:20:52;94965.56;;;21.90;63.07
23176;BME280;19910;42.652;23.332;2023-06-04T10:23:20;94961.25;;;21.85;63.58
23176;BME280;19910;42.652;23.332;2023-06-04T10:25:49;94960.91;;;22.05;63.70
23176;BME280;19910;42.652;23.332;2023-06-04T10:28:18;94964.06;;;22.63;63.54
23176;BME280;19910;42.652;23.332;2023-06-04T10:30:47;94961.28;;;22.85;61.14
23176;BME280;19910;42.652;23.332;2023-06-04T10:33:17;94966.03;;;22.77;61.43
23176;BME280;19910;42.652;23.332;2023-06-04T10:35:46;94966.34;;;23.11;61.18
23176;BME280;19910;42.652;23.332;2023-06-04T10:38:13;94965.84;;;23.37;60.33
23176;BME280;19910;42.652;23.332;2023-06-04T10:40:42;94968.31;;;23.18;59.99
23176;BME280;19910;42.652;23.332;2023-06-04T10:43:09;94968.75;;;23.02;59.79
23176;BME280;19910;42.652;23.332;2023-06-04T10:45:37;94958.91;;;22.87;61.09
23176;BME280;19910;42.652;23.332;2023-06-04T10:48:07;94967.16;;;23.01;59.24
23176;BME280;19910;42.652;23.332;2023-06-04T10:50:35;94959.47;;;23.58;60.51
23176;BME280;19910;42.652;23.332;2023-06-04T10:53:02;94966.63;;;23.42;60.31
23176;BME280;19910;42.652;23.332;2023-06-04T10:55:29;94949.22;;;23.52;59.54
23176;BME280;19910;42.652;23.332;2023-06-04T10:57:57;94964.81;;;22.96;61.03
23176;BME280;19910;42.652;23.332;2023-06-04T11:00:34;94958.47;;;23.10;61.36
23176;BME280;19910;42.652;23.332;2023-06-04T11:03:01;94951.03;;;24.42;58.56
23176;BME280;19910;42.652;23.332;2023-06-04T11:05:35;94952.25;;;24.82;57.75
23176;BME280;19910;42.652;23.332;2023-06-04T11:08:03;94949.66;;;24.13;57.33
23176;BME280;19910;42.652;23.332;2023-06-04T11:10:35;94963.34;;;23.75;58.70
23176;BME280;19910;42.652;23.332;2023-06-04T11:13:03;94967.47;;;23.24;59.67
23176;BME280;19910;42.652;23.332;2023-06-04T11:15:40;94956.47;;;23.14;59.62
23176;BME280;19910;42.652;23.332;2023-06-04T11:18:07;94960.47;;;22.88;61.02
23176;BME280;19910;42.652;23.332;2023-06-04T11:20:36;94962.06;;;22.60;61.83
23176;BME280;19910;42.652;23.332;2023-06-04T11:23:02;94975.09;;;22.03;63.39
23176;BME280;19910;42.652;23.332;2023-06-04T11:25:30;94964.88;;;22.25;63.93
23176;BME280;19910;42.652;23.332;2023-06-04T11:27:58;94966.84;;;22.39;62.47
23176;BME280;19910;42.652;23.332;2023-06-04T11:30:27;94958.94;;;22.51;62.64
23176;BME280;19910;42.652;23.332;2023-06-04T11:33:01;94955.78;;;22.78;61.47
23176;BME280;19910;42.652;23.332;2023-06-04T11:35:28;94958.91;;;22.87;61.36
23176;BME280;19910;42.652;23.332;2023-06-04T11:37:57;94968.38;;;22.93;62.16
23176;BME280;19910;42.652;23.332;2023-06-04T11:40:24;94946.28;;;22.75;60.85
23176;BME280;19910;42.652;23.332;2023-06-04T11:42:52;94965.22;;;22.69;62.12
23176;BME280;19910;42.652;23.332;2023-06-04T11:45:20;94954.19;;;22.77;62.28
23176;BME280;19910;42.652;23.332;2023-06-04T11:47:48;94966.03;;;22.77;61.33
23176;BME280;19910;42.652;23.332;2023-06-04T11:50:15;94966.41;;;22.61;61.39
23176;BME280;19910;42.652;23.332;2023-06-04T11:52:43;94971.16;;;22.36;62.67
23176;BME280;19910;42.652;23.332;2023-06-04T11:55:11;94970.69;;;21.84;63.88
23176;BME280;19910;42.652;23.332;2023-06-04T11:57:39;94973.31;;;21.31;65.77
23176;BME280;19910;42.652;23.332;2023-06-04T12:00:07;94969.22;;;21.07;66.82
23176;BME280;19910;42.652;23.332;2023-06-04T12:02:36;94970.38;;;21.06;66.52
23176;BME280;19910;42.652;23.332;2023-06-04T12:05:12;94972.38;;;21.09;66.02
23176;BME280;19910;42.652;23.332;2023-06-04T12:07:39;94969.31;;;21.21;66.18
23176;BME280;19910;42.652;23.332;2023-06-04T12:12:35;94977.72;;;21.60;64.99
23176;BME280;19910;42.652;23.332;2023-06-04T12:15:02;94972.06;;;21.21;65.53
23176;BME280;19910;42.652;23.332;2023-06-04T12:17:30;94985.34;;;21.02;66.37
23176;BME280;19910;42.652;23.332;2023-06-04T12:19:57;94990.72;;;20.84;67.71
23176;BME280;19910;42.652;23.332;2023-06-04T12:22:25;94985.25;;;20.91;68.29
23176;BME280;19910;42.652;23.332;2023-06-04T12:24:54;94989.81;;;20.62;69.30
23176;BME280;19910;42.652;23.332;2023-06-04T12:27:22;94991.78;;;20.65;68.60
23176;BME280;19910;42.652;23.332;2023-06-04T12:29:58;94980.50;;;20.84;68.76
23176;BME280;19910;42.652;23.332;2023-06-04T12:32:25;94986.81;;;20.85;68.34
23176;BME280;19910;42.652;23.332;2023-06-04T12:34:52;94986.00;;;20.84;68.19
23176;BME280;19910;42.652;23.332;2023-06-04T12:37:20;94986.38;;;20.76;68.63
23176;BME280;19910;42.652;23.332;2023-06-04T12:39:46;94976.78;;;20.55;69.54
23176;BME280;19910;42.652;23.332;2023-06-04T12:42:13;94981.56;;;20.66;69.48
23176;BME280;19910;42.652;23.332;2023-06-04T12:44:40;94983.63;;;20.83;69.61
23176;BME280;19910;42.652;23.332;2023-06-04T12:47:09;94976.63;;;20.96;68.80
23176;BME280;19910;42.652;23.332;2023-06-04T12:49:36;94977.47;;;21.07;67.79
23176;BME280;19910;42.652;23.332;2023-06-04T12:52:03;94978.28;;;21.04;68.64
23176;BME280;19910;42.652;23.332;2023-06-04T12:54:31;94982.09;;;20.85;68.90